createdAt,value
2023-04-09T00:04:16.028Z,83.92
2023-04-09T00:09:19.020Z,84.02
2023-04-09T00:14:21.591Z,84.31
2023-04-09T00:19:24.973Z,84.36
2023-04-09T00:24:27.495Z,84.73
2023-04-09T00:29:30.073Z,85.27
2023-04-09T00:34:32.628Z,85.47
2023-04-09T00:39:35.438Z,86.21
2023-04-09T00:44:38.078Z,86.28
2023-04-09T00:49:40.934Z,86.42
2023-04-09T00:54:43.567Z,86.60
2023-04-09T00:59:46.377Z,86.60
2023-04-09T01:04:50.392Z,86.78
2023-04-09T01:10:17.005Z,86.79
2023-04-09T01:15:24.944Z,86.90
2023-04-09T01:20:39.434Z,87.75
2023-04-09T01:25:56.971Z,88.23
2023-04-09T01:31:02.697Z,88.38
2023-04-09T01:36:07.195Z,88.25
2023-04-09T01:41:14.742Z,88.33
2023-04-09T01:46:19.326Z,88.34
2023-04-09T01:51:22.052Z,88.75
2023-04-09T01:56:24.570Z,89.25
2023-04-09T02:01:41.590Z,89.39
2023-04-09T02:06:58.064Z,89.31
2023-04-09T02:12:05.686Z,89.47
2023-04-09T02:17:08.339Z,89.04
2023-04-09T02:22:12.008Z,88.99
2023-04-09T02:27:14.776Z,89.39
2023-04-09T02:32:17.412Z,89.82
2023-04-09T02:37:20.058Z,90.18
2023-04-09T02:42:22.567Z,91.57
2023-04-09T02:47:27.144Z,91.37
2023-04-09T02:52:29.772Z,91.27
2023-04-09T02:57:33.716Z,91.51
2023-04-09T03:02:36.473Z,92.24
2023-04-09T03:07:39.125Z,92.56
2023-04-09T03:12:44.391Z,92.56
2023-04-09T03:17:46.953Z,92.61
2023-04-09T03:22:49.590Z,93.03
2023-04-09T03:27:52.260Z,93.63
2023-04-09T03:32:54.880Z,94.05
2023-04-09T03:37:57.419Z,94.55
2023-04-09T03:42:59.918Z,94.88
2023-04-09T03:48:02.542Z,95.04
2023-04-09T03:53:05.373Z,95.50
2023-04-09T03:58:07.854Z,95.59
2023-04-09T04:03:12.371Z,95.88
2023-04-09T04:08:15.099Z,96.22
2023-04-09T04:13:17.684Z,96.71
2023-04-09T04:18:20.176Z,96.78
2023-04-09T04:23:22.915Z,96.88
2023-04-09T04:28:25.506Z,97.14
2023-04-09T04:33:28.114Z,98.21
2023-04-09T04:38:30.686Z,98.20
2023-04-09T04:43:33.543Z,98.10
2023-04-09T04:48:36.164Z,98.75
2023-04-09T04:53:38.744Z,98.84
2023-04-09T04:58:42.249Z,99.08
2023-04-09T05:03:44.919Z,99.22
2023-04-09T05:08:47.528Z,99.22
2023-04-09T05:13:50.439Z,99.12
2023-04-09T05:18:53.180Z,99.03
2023-04-09T05:23:55.942Z,98.87
2023-04-09T05:28:58.533Z,98.89
2023-04-09T05:34:01.169Z,98.23
2023-04-09T05:39:03.849Z,97.50
2023-04-09T05:44:06.454Z,97.73
2023-04-09T05:49:09.095Z,97.87
2023-04-09T05:54:11.632Z,97.84
2023-04-09T05:59:14.142Z,97.63
2023-04-09T06:04:16.913Z,97.87
2023-04-09T06:09:19.822Z,97.45
2023-04-09T06:14:22.341Z,97.34
2023-04-09T06:19:24.924Z,97.33
2023-04-09T06:24:27.472Z,96.91
2023-04-09T06:29:30.227Z,97.18
2023-04-09T06:34:32.734Z,97.28
2023-04-09T06:39:35.325Z,96.56
2023-04-09T06:44:37.904Z,96.29
2023-04-09T06:49:40.444Z,95.84
2023-04-09T06:54:42.963Z,95.62
2023-04-09T06:59:45.530Z,95.31
2023-04-09T07:04:48.158Z,94.17
2023-04-09T07:09:51.290Z,93.62
2023-04-09T07:15:00.668Z,93.21
2023-04-09T07:20:04.073Z,91.82
2023-04-09T07:25:07.448Z,92.32
2023-04-09T07:30:10.850Z,91.34
2023-04-09T07:35:13.417Z,90.95
2023-04-09T07:40:16.377Z,90.63
2023-04-09T07:45:19.297Z,89.34
2023-04-09T07:50:22.080Z,88.33
2023-04-09T07:55:24.690Z,87.71
2023-04-09T08:00:27.227Z,86.43
2023-04-09T08:05:30.751Z,85.69
2023-04-09T08:10:33.288Z,85.95
2023-04-09T08:15:36.198Z,85.68
2023-04-09T08:20:44.784Z,84.60
2023-04-09T08:25:47.455Z,84.07
2023-04-09T08:30:50.075Z,83.59
2023-04-09T08:35:52.619Z,83.90
2023-04-09T08:40:55.347Z,82.70
2023-04-09T08:45:59.499Z,79.95
2023-04-09T08:51:02.356Z,78.66
2023-04-09T08:56:05.348Z,77.96
2023-04-09T09:01:21.884Z,76.54
2023-04-09T09:06:30.099Z,75.05
2023-04-09T09:11:34.473Z,74.40
2023-04-09T09:16:42.683Z,74.57
2023-04-09T09:21:56.674Z,72.73
2023-04-09T09:26:59.685Z,72.14
2023-04-09T09:32:02.231Z,72.01
2023-04-09T09:37:28.202Z,71.85
2023-04-09T09:42:31.806Z,70.26
2023-04-09T09:47:34.706Z,70.49
2023-04-09T09:52:39.313Z,68.82
2023-04-09T09:57:44.718Z,67.90
2023-04-09T10:02:56.634Z,66.79
2023-04-09T10:08:00.424Z,67.51
2023-04-09T10:13:06.050Z,66.90
2023-04-09T10:18:08.954Z,67.18
2023-04-09T10:23:19.598Z,67.89
2023-04-09T10:28:23.237Z,68.28
2023-04-09T10:33:28.103Z,67.78
2023-04-09T10:38:37.521Z,68.01
2023-04-09T10:43:41.123Z,68.36
2023-04-09T10:48:44.276Z,66.95
2023-04-09T10:53:46.798Z,67.18
2023-04-09T10:58:49.434Z,67.16
2023-04-09T11:04:10.740Z,66.51
2023-04-09T11:09:13.559Z,65.91
2023-04-09T11:14:20.411Z,65.55
2023-04-09T11:19:23.171Z,63.00
2023-04-09T11:24:25.701Z,61.89
2023-04-09T11:29:28.242Z,60.61
2023-04-09T11:34:33.958Z,59.85
2023-04-09T11:39:37.291Z,58.98
2023-04-09T11:44:41.047Z,59.48
2023-04-09T11:49:46.643Z,60.12
2023-04-09T11:54:50.221Z,60.74
2023-04-09T11:59:52.772Z,60.62
2023-04-09T12:04:55.633Z,60.71
2023-04-09T12:10:03.889Z,59.53
2023-04-09T12:15:19.566Z,59.49
2023-04-09T12:20:35.229Z,59.78
2023-04-09T12:25:41.025Z,59.48
2023-04-09T12:30:44.363Z,59.64
2023-04-09T12:35:47.127Z,59.10
2023-04-09T12:40:49.741Z,57.75
2023-04-09T12:45:53.034Z,58.87
2023-04-09T12:50:55.900Z,58.20
2023-04-09T12:55:59.227Z,59.05
2023-04-09T13:01:04.068Z,58.78
2023-04-09T13:06:06.987Z,58.20
2023-04-09T13:11:09.611Z,58.02
2023-04-09T13:16:12.283Z,58.27
2023-04-09T13:21:18.762Z,56.77
2023-04-09T13:26:21.620Z,54.67
2023-04-09T13:31:25.154Z,53.10
2023-04-09T13:36:27.879Z,51.56
2023-04-09T13:41:33.976Z,50.78
2023-04-09T13:46:36.724Z,50.88
2023-04-09T13:51:39.962Z,49.17
2023-04-09T13:56:42.498Z,47.89
2023-04-09T14:01:45.404Z,47.38
2023-04-09T14:06:47.988Z,46.85
2023-04-09T14:11:50.955Z,46.28
2023-04-09T14:16:54.004Z,45.36
2023-04-09T14:21:56.594Z,45.01
2023-04-09T14:26:59.467Z,45.01
2023-04-09T14:32:02.396Z,45.09
2023-04-09T14:37:05.031Z,46.15
2023-04-09T14:42:07.622Z,47.67
2023-04-09T14:47:10.308Z,48.18
2023-04-09T14:52:12.949Z,48.67
2023-04-09T14:57:15.542Z,49.34
2023-04-09T15:02:18.224Z,49.81
2023-04-09T15:07:22.818Z,50.06
2023-04-09T15:12:28.281Z,50.52
2023-04-09T15:17:30.869Z,50.32
2023-04-09T15:22:33.507Z,49.60
2023-04-09T15:27:36.120Z,48.71
2023-04-09T15:32:38.691Z,47.23
2023-04-09T15:37:41.693Z,46.42
2023-04-09T15:42:44.437Z,46.62
2023-04-09T15:47:47.092Z,46.45
2023-04-09T15:52:49.872Z,46.12
2023-04-09T15:57:53.022Z,46.58
2023-04-09T16:02:55.704Z,47.01
2023-04-09T16:07:59.934Z,47.68
2023-04-09T16:13:03.487Z,48.72
2023-04-09T16:18:06.212Z,50.90
2023-04-09T16:23:08.835Z,53.00
2023-04-09T16:28:11.601Z,54.89
2023-04-09T16:33:14.276Z,56.60
2023-04-09T16:38:17.081Z,58.22
2023-04-09T16:43:19.678Z,59.45
2023-04-09T16:48:22.382Z,59.96
2023-04-09T16:53:25.655Z,61.42
2023-04-09T16:58:28.945Z,62.62
2023-04-09T17:03:31.977Z,63.21
2023-04-09T17:08:35.305Z,64.05
2023-04-09T17:13:38.117Z,64.82
2023-04-09T17:18:41.421Z,66.11
2023-04-09T17:23:44.875Z,66.56
2023-04-09T17:28:47.643Z,67.48
2023-04-09T17:33:50.333Z,68.07
2023-04-09T17:38:53.529Z,68.80
2023-04-09T17:43:56.218Z,69.51
2023-04-09T17:48:58.867Z,69.79
2023-04-09T17:54:01.423Z,71.08
2023-04-09T17:59:03.984Z,71.32
2023-04-09T18:04:06.895Z,71.56
2023-04-09T18:09:10.022Z,72.03
2023-04-09T18:14:13.143Z,72.59
2023-04-09T18:19:15.989Z,72.88
2023-04-09T18:24:18.930Z,73.20
2023-04-09T18:29:21.834Z,73.97
2023-04-09T18:34:25.780Z,75.04
2023-04-09T18:39:30.724Z,74.91
2023-04-09T18:44:37.505Z,75.25
2023-04-09T18:49:40.491Z,75.60
2023-04-09T18:54:43.360Z,75.82
2023-04-09T18:59:46.591Z,75.90
2023-04-09T19:04:49.341Z,76.22
2023-04-09T19:09:52.145Z,76.23
2023-04-09T19:14:54.820Z,76.15
2023-04-09T19:19:57.946Z,76.36
2023-04-09T19:25:01.033Z,76.51
2023-04-09T19:30:04.485Z,76.70
2023-04-09T19:35:08.341Z,76.61
2023-04-09T19:40:11.461Z,76.53
2023-04-09T19:45:14.037Z,77.00
2023-04-09T19:50:16.862Z,76.74
2023-04-09T19:55:19.453Z,76.77
2023-04-09T20:00:22.198Z,77.08
2023-04-09T20:05:25.074Z,77.15
2023-04-09T20:10:27.670Z,77.25
2023-04-09T20:15:30.194Z,77.46
2023-04-09T20:20:32.974Z,77.75
2023-04-09T20:25:36.651Z,77.96
2023-04-09T20:30:39.268Z,78.48
2023-04-09T20:35:41.923Z,78.56
2023-04-09T20:40:44.500Z,78.70
2023-04-09T20:45:47.442Z,78.79
2023-04-09T20:50:50.584Z,78.90
2023-04-09T20:55:54.532Z,78.99
2023-04-09T21:01:09.114Z,79.17
2023-04-09T21:06:11.642Z,79.36
2023-04-09T21:11:14.814Z,79.61
2023-04-09T21:16:17.600Z,80.09
2023-04-09T21:21:20.487Z,80.19
2023-04-09T21:26:24.915Z,80.25
2023-04-09T21:31:27.507Z,80.68
2023-04-09T21:36:30.362Z,80.97
2023-04-09T21:41:32.904Z,81.10
2023-04-09T21:46:36.945Z,81.23
2023-04-09T21:51:39.787Z,81.19
2023-04-09T21:56:42.281Z,81.30
2023-04-09T22:01:46.922Z,81.56
2023-04-09T22:06:50.830Z,82.12
2023-04-09T22:11:53.685Z,82.51
2023-04-09T22:16:58.174Z,82.45
2023-04-09T22:22:00.938Z,82.28
2023-04-09T22:27:03.647Z,82.50
2023-04-09T22:32:06.234Z,82.56
2023-04-09T22:37:08.753Z,82.88
2023-04-09T22:42:12.056Z,82.76
2023-04-09T22:47:14.605Z,82.60
2023-04-09T22:52:17.110Z,82.52
2023-04-09T22:57:19.754Z,82.49
2023-04-09T23:02:22.384Z,82.49
2023-04-09T23:07:24.990Z,82.71
2023-04-09T23:12:27.474Z,83.31
2023-04-09T23:17:30.321Z,84.13
2023-04-09T23:22:32.836Z,84.09
2023-04-09T23:27:35.456Z,84.21
2023-04-09T23:32:37.949Z,84.73
2023-04-09T23:37:42.534Z,85.08
2023-04-09T23:42:45.709Z,85.10
2023-04-09T23:47:48.265Z,85.33
2023-04-09T23:52:51.438Z,85.59
2023-04-09T23:57:53.972Z,85.94
